Time;durP1;ratioP1;P1;durP2;ratioP2;P2;SDS_P1;SDS_P2;PMS_P1;PMS_P2;Temp;Humidity;BMP_temperature;BMP_pressure;BME280_temperature;BME280_humidity;BME280_pressure;Samples;Min_cycle;Max_cycle;Signal;HPM_P1;HPM_P2
2022/11/11 00:00:22;;;;;;;11.43;7.35;;;;;;;;;;5089755;28;20036;-73
2022/11/11 00:02:48;;;;;;;10.80;5.85;;;;;;;;;;5079929;28;20024;-73
2022/11/11 00:05:15;;;;;;;11.88;6.80;;;;;;;;;;5076511;28;20075;-73
2022/11/11 00:07:41;;;;;;;13.27;7.65;;;;;;;;;;5088792;28;20037;-73
2022/11/11 00:10:07;;;;;;;13.88;7.75;;;;;;;;;;5078612;28;20042;-73
2022/11/11 00:12:33;;;;;;;12.13;7.05;;;;;;;;;;5072734;28;20492;-73
2022/11/11 00:14:59;;;;;;;14.27;7.80;;;;;;;;;;5080990;28;20047;-73
2022/11/11 00:25:40;;;;;;;12.07;7.28;;;;;;;;;;5078784;28;20040;-73
2022/11/11 00:28:07;;;;;;;14.80;9.15;;;;;;;;;;5081229;28;20028;-73
2022/11/11 00:30:33;;;;;;;11.00;6.10;;;;;;;;;;5089434;28;20152;-73
2022/11/11 00:32:59;;;;;;;10.40;6.60;;;;;;;;;;5074860;28;20124;-73
2022/11/11 00:38:44;;;;;;;10.95;7.40;;;;;;;;;;5080783;28;20082;-73
2022/11/11 00:40:57;;;;;;;11.98;7.00;;;;;;;;;;5077438;28;20062;-73
2022/11/11 00:43:23;;;;;;;9.93;5.90;;;;;;;;;;5087795;28;20039;-74
2022/11/11 00:45:49;;;;;;;10.57;6.72;;;;;;;;;;5082636;28;20037;-73
2022/11/11 00:51:16;;;;;;;15.02;6.95;;;;;;;;;;5003320;28;20809;-73
2022/11/11 00:53:42;;;;;;;12.38;7.50;;;;;;;;;;5069300;28;20071;-73
2022/11/11 00:56:08;;;;;;;17.58;6.35;;;;;;;;;;5074339;28;20040;-73
2022/11/11 00:58:34;;;;;;;12.43;5.57;;;;;;;;;;5080950;28;20021;-73
2022/11/11 01:01:00;;;;;;;12.90;5.22;;;;;;;;;;5085414;28;20035;-73
2022/11/11 01:03:27;;;;;;;12.18;5.32;;;;;;;;;;5085325;28;20020;-73
2022/11/11 01:05:53;;;;;;;11.48;5.07;;;;;;;;;;5088178;28;20091;-73
2022/11/11 01:08:19;;;;;;;14.77;6.22;;;;;;;;;;5075199;28;20044;-73
2022/11/11 01:10:47;;;;;;;15.70;5.45;;;;;;;;;;5084830;28;20101;-73
2022/11/11 01:13:18;;;;;;;8.48;4.88;;;;;;;;;;5087101;28;20432;-73
2022/11/11 01:15:45;;;;;;;12.23;4.60;;;;;;;;;;5081840;28;20067;-73
2022/11/11 01:18:12;;;;;;;9.70;4.82;;;;;;;;;;5083507;28;20023;-73
2022/11/11 01:20:39;;;;;;;9.30;4.43;;;;;;;;;;5078815;28;20743;-73
2022/11/11 01:23:05;;;;;;;11.57;4.80;;;;;;;;;;5054227;28;20507;-73
2022/11/11 01:25:35;;;;;;;9.27;5.50;;;;;;;;;;5087540;28;20076;-73
2022/11/11 01:28:01;;;;;;;7.03;4.45;;;;;;;;;;5071337;28;20733;-73
2022/11/11 01:30:27;;;;;;;8.88;5.28;;;;;;;;;;5077183;28;20086;-73
2022/11/11 01:32:53;;;;;;;10.35;4.93;;;;;;;;;;5083930;28;20032;-73
2022/11/11 01:35:19;;;;;;;10.00;6.07;;;;;;;;;;5079137;28;20037;-73
2022/11/11 01:37:45;;;;;;;9.38;4.88;;;;;;;;;;5074155;28;20403;-73
2022/11/11 01:40:11;;;;;;;11.10;5.38;;;;;;;;;;5081671;28;20036;-73
2022/11/11 01:42:47;;;;;;;13.50;7.53;;;;;;;;;;5083184;28;20107;-73
2022/11/11 01:45:32;;;;;;;14.57;6.15;;;;;;;;;;5077011;28;20048;-73
2022/11/11 01:50:43;;;;;;;10.15;5.55;;;;;;;;;;5077110;28;20058;-73
2022/11/11 01:53:09;;;;;;;10.10;5.63;;;;;;;;;;5085250;28;20028;-73
2022/11/11 01:55:35;;;;;;;10.98;6.57;;;;;;;;;;5078212;28;20040;-73
2022/11/11 01:58:08;;;;;;;11.90;5.38;;;;;;;;;;5087078;28;20385;-73
2022/11/11 02:00:34;;;;;;;11.18;5.30;;;;;;;;;;5076410;28;20033;-73
2022/11/11 02:03:03;;;;;;;13.68;6.75;;;;;;;;;;5072950;28;20107;-73
2022/11/11 02:05:45;;;;;;;12.05;6.68;;;;;;;;;;5075052;28;20068;-73
2022/11/11 02:08:40;;;;;;;13.70;7.07;;;;;;;;;;5073041;28;20584;-73
2022/11/11 02:11:06;;;;;;;12.63;8.18;;;;;;;;;;5056683;28;20044;-73
2022/11/11 02:16:18;;;;;;;13.18;7.00;;;;;;;;;;5088730;28;20578;-73
2022/11/11 02:18:44;;;;;;;9.90;6.63;;;;;;;;;;5081487;28;20029;-73
2022/11/11 02:21:14;;;;;;;10.48;6.22;;;;;;;;;;5075649;28;20029;-73
2022/11/11 02:23:46;;;;;;;9.90;5.50;;;;;;;;;;5082289;28;20516;-73
2022/11/11 02:26:13;;;;;;;12.18;6.03;;;;;;;;;;5089728;28;20133;-73
2022/11/11 02:28:41;;;;;;;14.38;6.63;;;;;;;;;;5088355;28;20132;-73
2022/11/11 02:31:08;;;;;;;10.52;5.78;;;;;;;;;;5090968;28;20097;-73
2022/11/11 02:33:34;;;;;;;12.48;5.63;;;;;;;;;;5078196;28;20023;-73
2022/11/11 02:36:01;;;;;;;12.73;7.28;;;;;;;;;;5083888;28;20043;-73
2022/11/11 02:38:28;;;;;;;10.30;6.78;;;;;;;;;;5072413;28;20457;-72
2022/11/11 02:43:39;;;;;;;10.95;7.65;;;;;;;;;;5084933;28;20078;-73
2022/11/11 02:46:06;;;;;;;14.45;6.78;;;;;;;;;;5080101;28;20722;-73
2022/11/11 02:48:33;;;;;;;11.63;6.72;;;;;;;;;;5082954;28;20050;-73
2022/11/11 02:50:59;;;;;;;12.90;7.30;;;;;;;;;;5089903;28;20036;-73
2022/11/11 02:53:25;;;;;;;12.07;6.40;;;;;;;;;;5075781;28;20075;-73
2022/11/11 02:55:51;;;;;;;11.05;6.80;;;;;;;;;;5083518;28;20040;-73
2022/11/11 02:58:17;;;;;;;10.57;7.28;;;;;;;;;;5086214;28;20035;-73
2022/11/11 03:00:43;;;;;;;15.38;9.23;;;;;;;;;;5078536;28;20043;-73
2022/11/11 03:03:09;;;;;;;12.00;6.28;;;;;;;;;;5080128;28;20055;-73
2022/11/11 03:05:35;;;;;;;13.88;8.38;;;;;;;;;;5083413;28;20491;-72
2022/11/11 03:08:01;;;;;;;11.73;5.40;;;;;;;;;;5072169;28;20044;-73
2022/11/11 03:10:28;;;;;;;12.20;7.55;;;;;;;;;;5082525;28;20112;-73
2022/11/11 03:12:55;;;;;;;15.30;7.88;;;;;;;;;;5085370;28;20032;-73
2022/11/11 03:15:21;;;;;;;9.63;6.45;;;;;;;;;;5086410;28;20039;-73
2022/11/11 03:17:47;;;;;;;9.68;7.18;;;;;;;;;;5096699;28;20040;-73
2022/11/11 03:23:06;;;;;;;11.70;7.30;;;;;;;;;;5081133;28;20078;-73
2022/11/11 03:25:39;;;;;;;13.10;7.68;;;;;;;;;;5081897;28;20042;-73
2022/11/11 03:28:08;;;;;;;15.07;10.82;;;;;;;;;;5079805;28;20031;-73
2022/11/11 03:30:34;;;;;;;13.63;7.22;;;;;;;;;;5083376;28;20051;-73
2022/11/11 03:33:00;;;;;;;11.32;7.85;;;;;;;;;;5080240;28;20611;-73
2022/11/11 03:35:26;;;;;;;11.93;7.28;;;;;;;;;;5083755;28;20047;-73
2022/11/11 03:40:37;;;;;;;12.02;7.90;;;;;;;;;;5081848;28;20043;-73
2022/11/11 03:43:03;;;;;;;18.60;10.57;;;;;;;;;;5081092;28;20032;-73
2022/11/11 03:45:29;;;;;;;14.25;9.13;;;;;;;;;;5088353;28;20035;-73
2022/11/11 03:47:55;;;;;;;12.65;8.07;;;;;;;;;;5078091;28;20488;-73
2022/11/11 03:50:21;;;;;;;10.65;6.35;;;;;;;;;;5077907;28;20040;-73
2022/11/11 03:52:47;;;;;;;13.98;8.15;;;;;;;;;;5071445;28;20735;-73
2022/11/11 03:55:14;;;;;;;15.32;7.60;;;;;;;;;;5079840;28;20044;-73
2022/11/11 03:57:44;;;;;;;12.88;7.15;;;;;;;;;;5088972;28;20069;-73
2022/11/11 04:00:11;;;;;;;9.00;5.55;;;;;;;;;;5091182;28;20106;-73
2022/11/11 04:10:59;;;;;;;12.93;7.60;;;;;;;;;;5085185;28;20047;-73
2022/11/11 04:16:10;;;;;;;12.82;8.18;;;;;;;;;;5078748;28;20047;-73
2022/11/11 04:26:53;;;;;;;7.95;4.30;;;;;;;;;;5079756;28;20544;-73
2022/11/11 04:29:28;;;;;;;6.88;3.83;;;;;;;;;;5089012;28;20046;-73
2022/11/11 04:34:44;;;;;;;10.32;4.53;;;;;;;;;;5086987;28;20050;-73
2022/11/11 04:37:10;;;;;;;9.73;4.97;;;;;;;;;;5082843;28;20115;-73
2022/11/11 04:42:22;;;;;;;9.38;4.72;;;;;;;;;;5078508;28;20097;-73
2022/11/11 04:47:32;;;;;;;8.35;4.38;;;;;;;;;;5084358;28;20035;-73
2022/11/11 04:49:58;;;;;;;8.98;4.82;;;;;;;;;;5081767;28;20047;-73
2022/11/11 04:52:25;;;;;;;8.65;4.90;;;;;;;;;;5087532;28;20030;-73
2022/11/11 04:57:39;;;;;;;8.50;5.00;;;;;;;;;;5075822;28;20085;-73
2022/11/11 05:00:05;;;;;;;8.73;5.13;;;;;;;;;;5086008;28;20040;-73
2022/11/11 05:05:16;;;;;;;9.13;4.15;;;;;;;;;;5085128;28;20104;-73
2022/11/11 05:10:26;;;;;;;8.23;4.60;;;;;;;;;;5097391;28;20085;-73
2022/11/11 05:12:52;;;;;;;12.88;5.47;;;;;;;;;;5089046;28;20381;-73
2022/11/11 05:26:18;;;;;;;7.97;4.22;;;;;;;;;;5086456;28;20081;-73
2022/11/11 05:28:45;;;;;;;7.10;3.55;;;;;;;;;;5078689;28;20028;-73
2022/11/11 05:31:11;;;;;;;8.32;3.65;;;;;;;;;;5080063;28;20692;-73
2022/11/11 05:33:37;;;;;;;7.20;3.45;;;;;;;;;;5080665;28;20035;-73
2022/11/11 05:36:03;;;;;;;7.43;3.90;;;;;;;;;;5080109;28;20040;-73
2022/11/11 05:38:29;;;;;;;8.77;3.90;;;;;;;;;;5082340;28;20518;-73
2022/11/11 05:40:55;;;;;;;7.65;3.78;;;;;;;;;;5072441;28;20036;-74
2022/11/11 05:43:21;;;;;;;14.10;4.03;;;;;;;;;;5083108;28;20058;-73
2022/11/11 05:45:47;;;;;;;9.80;4.05;;;;;;;;;;5079320;28;20466;-73
2022/11/11 05:48:13;;;;;;;8.30;4.20;;;;;;;;;;5087910;28;20047;-73
2022/11/11 05:50:41;;;;;;;9.50;3.95;;;;;;;;;;5087119;28;20040;-73
2022/11/11 05:53:07;;;;;;;10.63;4.15;;;;;;;;;;5083264;28;20784;-74
2022/11/11 05:55:33;;;;;;;9.50;3.35;;;;;;;;;;5081451;28;20074;-73
2022/11/11 05:57:59;;;;;;;8.60;4.30;;;;;;;;;;5088064;28;20473;-73
2022/11/11 06:00:25;;;;;;;7.93;3.80;;;;;;;;;;5086006;28;20526;-73
2022/11/11 06:02:51;;;;;;;6.88;3.60;;;;;;;;;;5081982;28;20035;-73
2022/11/11 06:05:17;;;;;;;6.70;4.00;;;;;;;;;;5073947;28;20049;-73
2022/11/11 06:07:43;;;;;;;10.57;3.58;;;;;;;;;;5082472;28;22040;-73
2022/11/11 06:13:09;;;;;;;8.95;3.75;;;;;;;;;;5080504;28;20047;-73
2022/11/11 06:15:39;;;;;;;7.95;4.85;;;;;;;;;;5092275;28;20042;-73
2022/11/11 06:18:06;;;;;;;8.80;5.13;;;;;;;;;;5078802;28;20051;-73
2022/11/11 06:20:34;;;;;;;9.93;5.35;;;;;;;;;;5088667;28;20047;-73
2022/11/11 06:23:00;;;;;;;13.60;6.90;;;;;;;;;;5088276;28;20522;-73
2022/11/11 06:28:15;;;;;;;26.80;16.65;;;;;;;;;;5077632;28;20039;-73
2022/11/11 06:30:42;;;;;;;22.88;14.80;;;;;;;;;;5085863;28;20040;-73
2022/11/11 06:33:08;;;;;;;19.15;12.45;;;;;;;;;;5091310;28;20484;-73
2022/11/11 06:35:38;;;;;;;17.73;10.50;;;;;;;;;;5080471;28;20040;-73
2022/11/11 06:38:05;;;;;;;15.13;8.70;;;;;;;;;;5073479;28;20028;-73
2022/11/11 06:40:32;;;;;;;18.30;9.43;;;;;;;;;;5082721;28;20123;-73
2022/11/11 06:42:58;;;;;;;13.77;8.93;;;;;;;;;;5090463;28;20024;-73
2022/11/11 06:45:24;;;;;;;15.90;8.23;;;;;;;;;;5086107;28;20044;-74
2022/11/11 06:47:51;;;;;;;11.27;7.35;;;;;;;;;;5084276;28;20070;-73
2022/11/11 06:50:17;;;;;;;10.77;6.30;;;;;;;;;;5089923;28;20040;-73
2022/11/11 06:52:43;;;;;;;9.63;4.85;;;;;;;;;;5084318;28;20043;-74
2022/11/11 06:55:09;;;;;;;8.52;4.68;;;;;;;;;;5080678;28;20036;-73
2022/11/11 06:57:35;;;;;;;8.50;4.55;;;;;;;;;;5079189;28;20504;-73
2022/11/11 07:00:02;;;;;;;9.27;5.45;;;;;;;;;;5091864;28;20144;-74
2022/11/11 07:02:28;;;;;;;8.40;4.35;;;;;;;;;;5080719;28;20398;-73
2022/11/11 07:04:54;;;;;;;8.27;5.38;;;;;;;;;;5088005;28;20040;-74
2022/11/11 07:07:20;;;;;;;11.90;6.20;;;;;;;;;;5057199;28;20036;-74
2022/11/11 07:09:46;;;;;;;8.77;5.55;;;;;;;;;;5091437;28;20051;-74
2022/11/11 07:12:12;;;;;;;7.38;4.85;;;;;;;;;;5083311;28;20042;-73
2022/11/11 07:14:37;;;;;;;10.18;5.25;;;;;;;;;;5082564;28;20685;-74
2022/11/11 07:17:04;;;;;;;9.75;5.75;;;;;;;;;;5084067;28;20036;-73
2022/11/11 07:19:30;;;;;;;11.32;6.57;;;;;;;;;;5088764;28;20119;-73
2022/11/11 07:21:56;;;;;;;11.65;6.45;;;;;;;;;;5082189;28;20029;-73
2022/11/11 07:24:22;;;;;;;11.25;6.70;;;;;;;;;;5086532;28;20028;-73
2022/11/11 07:26:48;;;;;;;12.70;7.40;;;;;;;;;;5101667;23;22136;-73
2022/11/11 07:29:14;;;;;;;11.90;6.68;;;;;;;;;;5088207;28;20079;-74
2022/11/11 07:31:40;;;;;;;11.57;6.70;;;;;;;;;;5093600;28;20051;-73
2022/11/11 07:34:07;;;;;;;12.73;6.45;;;;;;;;;;5089047;28;20032;-73
2022/11/11 07:36:33;;;;;;;12.85;7.22;;;;;;;;;;5083355;28;20056;-73
2022/11/11 07:38:59;;;;;;;14.00;7.53;;;;;;;;;;5090166;28;20032;-74
2022/11/11 07:41:25;;;;;;;9.20;5.50;;;;;;;;;;5093120;28;20074;-74
2022/11/11 07:43:51;;;;;;;13.68;8.48;;;;;;;;;;5078111;28;20028;-74
2022/11/11 07:46:17;;;;;;;15.98;7.57;;;;;;;;;;5089374;28;20069;-74
2022/11/11 07:48:43;;;;;;;11.27;6.95;;;;;;;;;;5086546;28;20032;-73
2022/11/11 07:51:09;;;;;;;12.07;7.10;;;;;;;;;;5080794;28;20437;-74
2022/11/11 07:53:35;;;;;;;11.20;7.10;;;;;;;;;;5081544;28;20107;-74
2022/11/11 07:56:01;;;;;;;13.18;7.88;;;;;;;;;;5089860;28;20034;-74
2022/11/11 07:58:27;;;;;;;15.20;9.23;;;;;;;;;;5089789;28;20028;-74
2022/11/11 08:00:53;;;;;;;20.98;11.23;;;;;;;;;;5088764;28;20499;-74
2022/11/11 08:03:19;;;;;;;18.60;9.48;;;;;;;;;;5084058;28;20028;-74
2022/11/11 08:05:45;;;;;;;17.58;9.95;;;;;;;;;;5092067;28;20097;-73
2022/11/11 08:08:11;;;;;;;11.15;6.75;;;;;;;;;;5089887;28;20501;-74
2022/11/11 08:10:37;;;;;;;12.45;7.30;;;;;;;;;;5092142;28;20492;-73
2022/11/11 08:15:49;;;;;;;11.50;7.43;;;;;;;;;;5090208;28;20083;-74
2022/11/11 08:18:15;;;;;;;10.02;6.47;;;;;;;;;;5081753;28;20507;-74
2022/11/11 08:20:41;;;;;;;12.27;6.50;;;;;;;;;;5087913;28;20036;-73
2022/11/11 08:23:09;;;;;;;11.82;7.05;;;;;;;;;;5096727;28;20461;-74
2022/11/11 08:25:36;;;;;;;13.25;6.65;;;;;;;;;;5083931;28;20055;-74
2022/11/11 08:28:03;;;;;;;11.05;6.13;;;;;;;;;;5081883;28;20039;-73
2022/11/11 08:30:30;;;;;;;10.02;6.60;;;;;;;;;;5092206;28;20032;-74
2022/11/11 08:33:00;;;;;;;12.27;7.25;;;;;;;;;;5078610;28;20071;-74
2022/11/11 08:35:26;;;;;;;8.10;4.35;;;;;;;;;;5083493;28;20036;-74
2022/11/11 08:37:52;;;;;;;8.73;4.45;;;;;;;;;;5083930;28;20028;-74
2022/11/11 08:40:18;;;;;;;6.55;3.83;;;;;;;;;;5082227;28;20043;-74
2022/11/11 08:42:44;;;;;;;8.25;3.28;;;;;;;;;;5083065;28;20024;-74
2022/11/11 08:45:10;;;;;;;8.10;3.90;;;;;;;;;;5084458;28;20040;-74
2022/11/11 08:47:37;;;;;;;6.47;4.43;;;;;;;;;;5081774;28;20415;-74
2022/11/11 08:50:03;;;;;;;7.95;4.28;;;;;;;;;;5081136;28;20047;-73
2022/11/11 08:52:29;;;;;;;8.32;4.88;;;;;;;;;;5094087;28;20067;-74
2022/11/11 08:54:55;;;;;;;8.23;4.00;;;;;;;;;;5086451;28;20076;-74
2022/11/11 08:57:21;;;;;;;7.30;4.50;;;;;;;;;;5088814;28;20706;-74
2022/11/11 08:59:47;;;;;;;9.07;3.53;;;;;;;;;;5088260;28;20028;-74
2022/11/11 09:02:13;;;;;;;8.20;4.28;;;;;;;;;;5083785;28;20043;-74
2022/11/11 09:04:40;;;;;;;9.60;4.38;;;;;;;;;;5090089;28;20119;-74
2022/11/11 09:07:06;;;;;;;11.27;4.68;;;;;;;;;;5086242;28;20665;-74
2022/11/11 09:09:32;;;;;;;9.40;5.05;;;;;;;;;;5083248;28;20046;-74
2022/11/11 09:11:58;;;;;;;8.15;4.60;;;;;;;;;;5086801;28;20040;-74
2022/11/11 09:14:24;;;;;;;10.82;6.55;;;;;;;;;;5082232;28;20028;-74
2022/11/11 09:16:50;;;;;;;16.52;8.13;;;;;;;;;;5084456;28;20032;-74
2022/11/11 09:19:16;;;;;;;12.18;6.70;;;;;;;;;;5086656;28;20028;-74
2022/11/11 09:21:42;;;;;;;13.40;5.85;;;;;;;;;;5077500;28;20090;-73
2022/11/11 09:24:09;;;;;;;6.38;3.25;;;;;;;;;;5077412;28;20067;-74
2022/11/11 09:26:35;;;;;;;6.32;2.45;;;;;;;;;;5080607;28;20062;-74
2022/11/11 09:29:01;;;;;;;6.28;2.47;;;;;;;;;;5082813;28;20028;-73
2022/11/11 09:31:27;;;;;;;8.38;2.78;;;;;;;;;;5084924;28;20427;-73
2022/11/11 09:33:53;;;;;;;11.52;3.20;;;;;;;;;;5085494;28;20521;-73
2022/11/11 09:36:20;;;;;;;8.57;4.30;;;;;;;;;;5086536;28;20024;-74
2022/11/11 09:38:46;;;;;;;8.43;3.17;;;;;;;;;;5080073;28;20036;-73
2022/11/11 09:41:14;;;;;;;7.80;2.30;;;;;;;;;;5087367;28;20035;-73
2022/11/11 09:43:40;;;;;;;5.13;2.28;;;;;;;;;;5084006;28;20028;-73
2022/11/11 09:46:16;;;;;;;6.10;2.33;;;;;;;;;;5082648;28;20036;-74
2022/11/11 09:48:41;;;;;;;5.22;1.90;;;;;;;;;;5074956;28;20115;-74
2022/11/11 09:51:13;;;;;;;6.57;2.30;;;;;;;;;;5085999;28;20158;-73
2022/11/11 09:53:42;;;;;;;5.05;1.98;;;;;;;;;;5086917;28;20146;-74
2022/11/11 09:56:10;;;;;;;8.60;2.05;;;;;;;;;;5090655;28;20038;-73
2022/11/11 09:58:36;;;;;;;6.38;2.00;;;;;;;;;;5079312;28;20138;-73
2022/11/11 10:01:11;;;;;;;12.15;5.45;;;;;;;;;;5087128;28;20136;-74
2022/11/11 10:03:44;;;;;;;8.15;3.00;;;;;;;;;;5080615;28;20036;-73
2022/11/11 10:06:16;;;;;;;4.78;2.22;;;;;;;;;;5081633;28;20067;-74
2022/11/11 10:08:49;;;;;;;3.78;1.70;;;;;;;;;;5080763;28;20077;-73
2022/11/11 10:11:22;;;;;;;4.20;1.38;;;;;;;;;;5083359;28;20124;-74
2022/11/11 10:13:48;;;;;;;3.80;1.52;;;;;;;;;;5081035;28;20029;-73
2022/11/11 10:16:14;;;;;;;4.05;1.20;;;;;;;;;;5069333;28;20131;-74
2022/11/11 10:18:45;;;;;;;3.88;1.35;;;;;;;;;;5082617;28;20087;-74
2022/11/11 10:21:14;;;;;;;5.32;1.70;;;;;;;;;;5083030;28;20051;-74
2022/11/11 10:23:42;;;;;;;4.85;2.15;;;;;;;;;;5081809;28;20024;-74
2022/11/11 10:26:27;;;;;;;4.90;2.20;;;;;;;;;;5085387;28;20041;-74
2022/11/11 10:28:53;;;;;;;5.55;2.90;;;;;;;;;;5083890;28;20054;-74
2022/11/11 10:31:20;;;;;;;6.82;2.50;;;;;;;;;;5078976;28;20481;-74
2022/11/11 10:33:49;;;;;;;6.05;2.10;;;;;;;;;;5079385;28;20073;-73
2022/11/11 10:36:17;;;;;;;3.55;1.33;;;;;;;;;;5087099;28;20040;-74
2022/11/11 10:38:43;;;;;;;3.65;1.52;;;;;;;;;;5094071;28;20035;-74
2022/11/11 10:41:14;;;;;;;3.50;1.55;;;;;;;;;;5085174;28;20027;-73
2022/11/11 10:43:40;;;;;;;3.17;1.40;;;;;;;;;;5071805;28;20021;-74
2022/11/11 10:46:22;;;;;;;4.28;1.20;;;;;;;;;;5082624;28;20024;-74
2022/11/11 10:49:11;;;;;;;3.05;1.00;;;;;;;;;;5086422;28;20527;-74
2022/11/11 10:51:49;;;;;;;4.57;1.58;;;;;;;;;;5080141;28;20377;-74
2022/11/11 10:54:18;;;;;;;6.80;1.73;;;;;;;;;;5091794;28;20040;-74
2022/11/11 10:56:48;;;;;;;5.95;1.83;;;;;;;;;;5090763;28;20404;-74
2022/11/11 10:59:37;;;;;;;6.90;2.00;;;;;;;;;;5081404;28;20025;-74
2022/11/11 11:02:12;;;;;;;5.40;1.77;;;;;;;;;;5074112;28;20469;-74
2022/11/11 11:04:43;;;;;;;4.95;1.73;;;;;;;;;;5086533;28;20867;-74
2022/11/11 11:07:13;;;;;;;5.78;1.77;;;;;;;;;;5089932;28;20024;-74
2022/11/11 11:09:49;;;;;;;5.15;1.33;;;;;;;;;;5096743;28;20039;-74
2022/11/11 11:12:19;;;;;;;4.07;1.33;;;;;;;;;;5082805;28;20044;-74
2022/11/11 11:14:47;;;;;;;3.53;1.02;;;;;;;;;;5081369;28;20527;-75
2022/11/11 11:17:16;;;;;;;5.05;1.10;;;;;;;;;;5086584;28;20038;-74
2022/11/11 11:19:42;;;;;;;3.72;1.20;;;;;;;;;;5080342;28;20039;-74
2022/11/11 11:22:08;;;;;;;3.22;1.45;;;;;;;;;;5085699;28;20032;-74
2022/11/11 11:24:38;;;;;;;3.60;1.48;;;;;;;;;;5089334;28;20141;-74
2022/11/11 11:27:06;;;;;;;4.25;1.10;;;;;;;;;;5085344;28;20043;-74
2022/11/11 11:29:32;;;;;;;3.13;1.30;;;;;;;;;;5084966;28;20028;-74
2022/11/11 11:32:31;;;;;;;5.45;1.38;;;;;;;;;;5087980;28;20044;-74
2022/11/11 11:34:57;;;;;;;3.95;1.25;;;;;;;;;;5041866;28;20059;-74
2022/11/11 11:37:25;;;;;;;4.00;1.40;;;;;;;;;;5088002;28;20037;-74
2022/11/11 11:40:01;;;;;;;4.57;1.23;;;;;;;;;;5096037;28;20024;-74
2022/11/11 11:42:28;;;;;;;2.60;0.75;;;;;;;;;;5083139;28;20024;-74
2022/11/11 11:44:54;;;;;;;2.47;0.90;;;;;;;;;;5089210;28;20040;-74
2022/11/11 11:47:29;;;;;;;4.05;0.80;;;;;;;;;;5086439;28;20028;-74
2022/11/11 11:50:14;;;;;;;3.42;0.90;;;;;;;;;;5083546;28;20102;-74
2022/11/11 11:52:58;;;;;;;3.67;1.00;;;;;;;;;;5082225;28;20028;-74
2022/11/11 11:55:42;;;;;;;2.67;0.93;;;;;;;;;;5082692;28;20035;-74
2022/11/11 11:58:30;;;;;;;3.95;0.70;;;;;;;;;;5082692;28;20047;-74
2022/11/11 12:00:56;;;;;;;3.42;1.27;;;;;;;;;;5085140;28;20032;-74
2022/11/11 12:03:41;;;;;;;3.58;1.10;;;;;;;;;;5080310;28;20025;-74
2022/11/11 12:06:13;;;;;;;3.30;1.15;;;;;;;;;;5081462;28;20067;-74
2022/11/11 12:08:47;;;;;;;6.53;1.05;;;;;;;;;;5085240;28;20033;-74
2022/11/11 12:11:28;;;;;;;4.70;1.30;;;;;;;;;;5076604;28;20032;-74
2022/11/11 12:14:03;;;;;;;4.63;1.13;;;;;;;;;;5084643;28;20032;-74
2022/11/11 12:16:48;;;;;;;6.65;1.38;;;;;;;;;;5084935;28;20932;-74
2022/11/11 12:19:26;;;;;;;3.72;1.05;;;;;;;;;;5082226;28;20063;-74
2022/11/11 12:22:16;;;;;;;3.30;1.00;;;;;;;;;;5081638;28;20046;-74
2022/11/11 12:24:49;;;;;;;2.67;1.00;;;;;;;;;;5079503;28;20031;-74
2022/11/11 12:27:15;;;;;;;4.20;1.00;;;;;;;;;;5084659;28;20523;-74
2022/11/11 12:29:53;;;;;;;2.33;0.82;;;;;;;;;;5081412;28;20028;-74
2022/11/11 12:32:31;;;;;;;3.20;1.25;;;;;;;;;;5086985;28;20028;-74
2022/11/11 12:35:03;;;;;;;4.43;0.90;;;;;;;;;;5081105;28;20146;-74
2022/11/11 12:37:49;;;;;;;1.73;0.80;;;;;;;;;;5078788;28;20048;-73
2022/11/11 12:40:21;;;;;;;2.67;0.82;;;;;;;;;;5082648;28;20067;-73
2022/11/11 12:43:11;;;;;;;2.63;0.88;;;;;;;;;;5081076;28;20034;-73
2022/11/11 12:45:47;;;;;;;2.53;0.75;;;;;;;;;;5087889;28;20031;-74
2022/11/11 12:48:24;;;;;;;1.92;0.73;;;;;;;;;;5085123;28;20024;-73
2022/11/11 12:51:05;;;;;;;2.67;0.73;;;;;;;;;;5074871;28;20042;-74
2022/11/11 12:53:43;;;;;;;3.22;1.25;;;;;;;;;;5083123;28;20073;-74
2022/11/11 12:56:13;;;;;;;2.08;0.70;;;;;;;;;;5084259;28;20040;-74
2022/11/11 12:58:54;;;;;;;2.20;0.70;;;;;;;;;;5085420;28;20020;-74
2022/11/11 13:01:20;;;;;;;4.75;0.80;;;;;;;;;;5084344;28;20032;-74
2022/11/11 13:03:58;;;;;;;1.83;0.80;;;;;;;;;;5077457;28;20027;-74
2022/11/11 13:06:42;;;;;;;1.95;0.80;;;;;;;;;;5083223;28;20036;-74
2022/11/11 13:09:18;;;;;;;5.05;1.20;;;;;;;;;;5076904;28;20044;-74
2022/11/11 13:12:04;;;;;;;3.05;1.05;;;;;;;;;;5083114;28;20118;-74
2022/11/11 13:14:30;;;;;;;5.20;1.92;;;;;;;;;;5080381;28;20059;-74
2022/11/11 13:16:59;;;;;;;4.95;1.95;;;;;;;;;;5080762;28;20079;-74
2022/11/11 13:19:34;;;;;;;4.22;1.73;;;;;;;;;;5078286;28;20052;-74
2022/11/11 13:22:21;;;;;;;2.97;1.10;;;;;;;;;;5081606;28;20032;-73
2022/11/11 13:24:48;;;;;;;8.23;1.48;;;;;;;;;;5065524;28;20170;-74
2022/11/11 13:27:16;;;;;;;5.03;1.25;;;;;;;;;;5081093;28;20107;-74
2022/11/11 13:29:51;;;;;;;3.40;1.08;;;;;;;;;;5079762;28;20973;-73
2022/11/11 13:32:19;;;;;;;4.20;1.35;;;;;;;;;;5077633;28;20024;-73
2022/11/11 13:34:45;;;;;;;4.07;1.50;;;;;;;;;;5085192;28;20061;-74
2022/11/11 13:37:19;;;;;;;3.80;1.52;;;;;;;;;;5072064;28;20031;-73
2022/11/11 13:39:47;;;;;;;6.18;1.75;;;;;;;;;;5078256;28;20024;-74
2022/11/11 13:42:19;;;;;;;5.50;1.65;;;;;;;;;;5086432;28;20024;-74
2022/11/11 13:44:52;;;;;;;3.60;1.58;;;;;;;;;;5078701;28;20447;-73
2022/11/11 13:47:20;;;;;;;4.50;1.60;;;;;;;;;;5088194;28;20032;-73
2022/11/11 13:49:51;;;;;;;3.45;1.30;;;;;;;;;;5083587;28;20389;-73
2022/11/11 13:52:20;;;;;;;2.20;0.95;;;;;;;;;;5076567;28;20200;-74
2022/11/11 13:54:53;;;;;;;4.35;1.10;;;;;;;;;;5080701;28;20039;-73
2022/11/11 13:57:19;;;;;;;;;;;;;;;;;;5086203;28;20827;-74
2022/11/11 13:59:51;;;;;;;7.30;2.72;;;;;;;;;;5085206;28;19919;-74
2022/11/11 14:02:17;;;;;;;;;;;;;;;;;;5085369;28;20032;-74
2022/11/11 14:05:11;;;;;;;7.18;2.60;;;;;;;;;;5075340;28;20385;-74
2022/11/11 14:07:43;;;;;;;5.95;2.83;;;;;;;;;;5082628;28;20111;-73
2022/11/11 14:10:15;;;;;;;9.10;2.70;;;;;;;;;;5083882;28;20046;-74
2022/11/11 14:12:41;;;;;;;;;;;;;;;;;;5089389;28;20032;-73
2022/11/11 14:15:27;;;;;;;9.07;3.85;;;;;;;;;;5079738;28;19915;-73
2022/11/11 14:17:53;;;;;;;4.82;2.03;;;;;;;;;;5085382;28;20074;-73
2022/11/11 14:20:38;;;;;;;6.13;1.60;;;;;;;;;;5086648;28;20032;-73
2022/11/11 14:23:22;;;;;;;5.30;1.20;;;;;;;;;;5087946;28;20128;-73
2022/11/11 14:25:49;;;;;;;4.07;1.02;;;;;;;;;;5079799;28;20379;-73
2022/11/11 14:28:21;;;;;;;2.90;1.10;;;;;;;;;;5080021;28;20111;-73
2022/11/11 14:30:47;;;;;;;8.85;3.90;;;;;;;;;;5084006;28;20074;-73
2022/11/11 14:33:23;;;;;;;5.43;2.03;;;;;;;;;;5084159;28;20029;-73
2022/11/11 14:36:05;;;;;;;4.88;1.27;;;;;;;;;;5086617;28;20032;-73
2022/11/11 14:38:31;;;;;;;4.25;1.48;;;;;;;;;;5083919;28;20034;-74
2022/11/11 14:41:17;;;;;;;5.32;1.50;;;;;;;;;;5079731;28;20385;-73
2022/11/11 14:43:43;;;;;;;7.03;1.60;;;;;;;;;;5079784;28;20043;-73
2022/11/11 14:46:12;;;;;;;4.00;1.55;;;;;;;;;;5089912;28;20136;-74
2022/11/11 14:48:49;;;;;;;4.10;1.23;;;;;;;;;;5077967;28;20085;-74
2022/11/11 14:51:33;;;;;;;3.80;1.40;;;;;;;;;;5085919;28;20036;-74
2022/11/11 14:53:59;;;;;;;8.40;3.55;;;;;;;;;;5082957;28;20359;-74
2022/11/11 14:56:27;;;;;;;8.55;5.03;;;;;;;;;;5084943;28;20055;-74
2022/11/11 14:59:05;;;;;;;8.50;4.55;;;;;;;;;;5089163;28;20381;-74
2022/11/11 15:01:32;;;;;;;8.52;4.50;;;;;;;;;;5082391;28;20773;-74
2022/11/11 15:04:01;;;;;;;5.13;4.00;;;;;;;;;;5085480;28;20046;-74
2022/11/11 15:06:30;;;;;;;5.85;2.80;;;;;;;;;;5084718;28;20043;-73
2022/11/11 15:08:56;;;;;;;5.97;2.58;;;;;;;;;;5084335;28;20031;-73
2022/11/11 15:11:28;;;;;;;6.65;3.47;;;;;;;;;;5084953;28;20047;-74
2022/11/11 15:14:13;;;;;;;9.10;3.47;;;;;;;;;;5089490;28;20492;-73
2022/11/11 15:16:42;;;;;;;6.88;3.20;;;;;;;;;;5082624;28;20073;-73
2022/11/11 15:19:19;;;;;;;5.47;2.72;;;;;;;;;;5088319;28;20028;-73
2022/11/11 15:21:57;;;;;;;5.68;2.30;;;;;;;;;;5086771;28;20062;-73
2022/11/11 15:24:37;;;;;;;8.98;4.80;;;;;;;;;;5079884;28;20051;-73
2022/11/11 15:27:24;;;;;;;9.68;4.35;;;;;;;;;;5084752;28;20035;-74
2022/11/11 15:30:09;;;;;;;9.00;4.45;;;;;;;;;;5039668;28;20040;-74
2022/11/11 15:32:56;;;;;;;6.32;3.20;;;;;;;;;;5084188;28;20024;-74
2022/11/11 15:35:28;;;;;;;10.52;5.75;;;;;;;;;;5080785;28;20089;-73
2022/11/11 15:37:57;;;;;;;15.40;8.70;;;;;;;;;;5084123;28;20044;-74
2022/11/11 15:40:24;;;;;;;14.23;8.23;;;;;;;;;;5089344;28;20032;-73
2022/11/11 15:42:51;;;;;;;13.95;7.72;;;;;;;;;;5087929;28;20049;-73
2022/11/11 15:45:17;;;;;;;16.80;7.15;;;;;;;;;;5084150;28;20036;-73
2022/11/11 15:47:44;;;;;;;16.85;7.10;;;;;;;;;;5072929;28;20048;-73
2022/11/11 15:50:17;;;;;;;13.65;5.35;;;;;;;;;;5089092;28;20040;-73
2022/11/11 15:52:43;;;;;;;8.68;4.50;;;;;;;;;;5083051;28;20032;-73
2022/11/11 15:55:19;;;;;;;9.85;4.57;;;;;;;;;;5084371;28;20036;-73
2022/11/11 15:57:44;;;;;;;8.23;4.25;;;;;;;;;;5085784;28;20036;-73
2022/11/11 16:00:23;;;;;;;7.78;3.60;;;;;;;;;;5081099;28;20035;-73
2022/11/11 16:02:50;;;;;;;8.30;3.80;;;;;;;;;;5086393;28;20039;-74
2022/11/11 16:05:19;;;;;;;13.27;4.43;;;;;;;;;;5081441;28;20028;-74
2022/11/11 16:07:46;;;;;;;7.10;3.70;;;;;;;;;;5077591;28;20043;-74
2022/11/11 16:10:27;;;;;;;10.82;3.85;;;;;;;;;;5078193;28;20047;-74
2022/11/11 16:12:58;;;;;;;9.23;3.85;;;;;;;;;;5077933;28;20067;-74
2022/11/11 16:15:37;;;;;;;14.52;8.35;;;;;;;;;;5085847;28;20039;-74